Página principal
METAR-TAF:

METAR-TAF

Aeroportos :

Nouakchott, Mauritânia

Aeroporto Internacional Nouakchott-Oumtounsy

latitude: 18-18-36N, longitude: 015-58-11W, altura: 3 m

Observação actual do tempo

O boletim foi feito há 31 minutos, às 13:00 UTC
Vento 11 kt de norte, variando entre nor-noroeste e nordeste
Temperatura 27°C
Humidade 26%
Pressão 1011 hPa
Visibilidade 10 km ou mais
sem nuvens abaixo de 1500 metros e sem cumulonimbus

METAR: GQNO 211300Z 01011KT 340V050 CAVOK 27/06 Q1011 NOSIG

Hora: 13:31 (13:31 UTC)

Previsão

O boletim foi feito há 26 horas e 31 minutos, às 11:00 UTC
Previsão válida de 20 às 12 UTC a 21 às 18 UTC
Vento 12 kt de nor-nordeste
Visibilidade: 8000 m
Tornando-se
de 20 às 16 UTC a 20 às 19 UTC
Vento 14 kt de nor-noroeste

TAF: GQNO 201100Z 2012/2118 03012KT 8000 NSC BECMG 2016/2019 33014KT

Observações e previsões do tempo de mais de 4000 aeroportos (mensagens METAR e TAF).

As estações disponíveis são os pontos amarelos e vermelhos sobre o mapa.

Mova o rato sobre o mapa para ver o nome da estação.

Depois clique no ponto para visualizar as observações e previsões meteorológicas.

Para alterar o mapa : clique nos botões verdes com uma cruz preta para aumentar o zoom; no botão verde com uma pitada de zoom; ou nas setas verdes para mapas adjacentes.


METAR-TAF: